Marina PrinceSS 3 — 9V7947 — position and weather

sailwx.info

Track history (hours):
 
Tides and Currents Weather Stations Pressure Air Temp Water Temp Dewpoint Dewpoint Depression Visibility Wind Speed Wind Dir Waves Ship Positions

Marina PrinceSS 3

Last reported at 2018-Jan-22 12:28 UTC. Time now 2018-Jan-22 12:37 UTC.
Position N 01°18' E 103°44'.

Length 30 m.

Type: Tug. MMSI: 563004120.

Date/timePositionNaut miles runAvg speedWind from/ knotsBaromVisibWave heightAir tempDewpointWater temp
2018-Jan-22 12:28N 01°18' E 103°44'0 0.0
2018-Jan-22 11:55N 01°18' E 103°44'0 0.0
2018-Jan-22 11:25N 01°18' E 103°44'0 0.0
2018-Jan-22 10:55N 01°18' E 103°44'0 0.0
2018-Jan-22 10:28N 01°18' E 103°44'0 0.0
2018-Jan-22 09:52N 01°18' E 103°44'0 0.0
2018-Jan-22 09:28N 01°18' E 103°44'0 0.0
2018-Jan-22 08:58N 01°18' E 103°44'3 6.5
2018-Jan-22 08:29N 01°16' E 103°46'4 0.3
2018-Jan-21 17:47N 01°14' E 103°49'3 8.5
2018-Jan-21 17:26N 01°15' E 103°47'4 8.9
2018-Jan-21 16:58N 01°18' E 103°44'0 0.3
2018-Jan-21 16:26N 01°18' E 103°44'0 0.0
2018-Jan-21 15:59N 01°18' E 103°44'0 0.0
2018-Jan-21 15:26N 01°18' E 103°44'0 0.0
2018-Jan-21 14:56N 01°18' E 103°44'0 0.0
2018-Jan-21 14:23N 01°18' E 103°44'0 0.0
2018-Jan-21 13:59N 01°18' E 103°44'0 0.0
2018-Jan-21 12:44N 01°18' E 103°44'0 0.0
2018-Jan-21 11:08N 01°18' E 103°44'0 0.0
2018-Jan-21 10:40N 01°18' E 103°44'0 0.0
2018-Jan-21 10:28N 01°18' E 103°44'0 0.0
2018-Jan-21 09:58N 01°18' E 103°44'0 0.0
2018-Jan-21 09:25N 01°18' E 103°44'0 0.0
2018-Jan-21 08:58N 01°18' E 103°44'0 0.0
2018-Jan-21 08:28N 01°18' E 103°44'0 0.0
2018-Jan-21 07:52N 01°18' E 103°44'0 0.0
2018-Jan-21 07:28N 01°18' E 103°44'0 0.0
2018-Jan-21 06:55N 01°18' E 103°44'0 0.0
2018-Jan-21 06:28N 01°18' E 103°44'0 0.0
2018-Jan-21 05:55N 01°18' E 103°44'0 0.0
2018-Jan-21 05:25N 01°18' E 103°44'0 0.0
2018-Jan-21 04:58N 01°18' E 103°44'0 0.0
2018-Jan-21 04:28N 01°18' E 103°44'0 0.0
2018-Jan-21 03:58N 01°18' E 103°44'0 0.0
2018-Jan-21 03:28N 01°18' E 103°44'0 0.0
2018-Jan-21 02:58N 01°18' E 103°44'0 0.0
2018-Jan-21 02:28N 01°18' E 103°44'0 0.0
2018-Jan-21 01:58N 01°18' E 103°44'0 0.0
2018-Jan-21 01:28N 01°18' E 103°44'0 0.0
2018-Jan-21 00:52N 01°18' E 103°44'0 0.0
2018-Jan-21 00:25N 01°18' E 103°44'2 4.0
2018-Jan-20 23:59N 01°17' E 103°45'3 5.1
2018-Jan-20 23:29N 01°15' E 103°47'1 0.6
2018-Jan-20 21:55N 01°16' E 103°47'0 0.0
2018-Jan-20 19:56N 01°16' E 103°47'3 0.7
2018-Jan-20 16:17N 01°14' E 103°50'3 8.1
2018-Jan-20 15:59N 01°15' E 103°47'4 8.5
2018-Jan-20 15:30N 01°18' E 103°44'1 1.4
2018-Jan-20 14:58N 01°18' E 103°44'0 0.0
2018-Jan-20 14:28N 01°18' E 103°44'0 0.0
2018-Jan-20 13:58N 01°18' E 103°44'0 0.0
2018-Jan-20 13:28N 01°18' E 103°44'0 0.0
2018-Jan-20 12:55N 01°18' E 103°44'0 0.0
2018-Jan-20 12:28N 01°18' E 103°44'0 0.0
2018-Jan-20 11:58N 01°18' E 103°44'0 0.0
2018-Jan-20 11:28N 01°18' E 103°44'0 0.0
2018-Jan-20 10:58N 01°18' E 103°44'0 0.0
2018-Jan-20 10:28N 01°18' E 103°44'0 0.0
2018-Jan-20 09:58N 01°18' E 103°44'0 0.0
2018-Jan-20 09:28N 01°18' E 103°44'0 0.0
2018-Jan-20 09:01N 01°18' E 103°44'0 0.0
2018-Jan-20 08:28N 01°18' E 103°44'0 0.0
2018-Jan-20 07:58N 01°18' E 103°44'0 0.0
2018-Jan-20 07:25N 01°18' E 103°44'0 0.0
2018-Jan-20 06:58N 01°18' E 103°44'3 5.7
2018-Jan-20 06:30N 01°16' E 103°44'4 7.5
2018-Jan-20 05:55N 01°14' E 103°40'4 8.4
2018-Jan-20 05:27N 01°18' E 103°39'0 0.3
2018-Jan-20 04:56N 01°18' E 103°39'1 2.1
2018-Jan-20 04:28N 01°17' E 103°39'2 3.7
2018-Jan-20 04:00N 01°16' E 103°39'2 3.5
2018-Jan-20 03:30N 01°14' E 103°40'2 2.9
2018-Jan-20 02:58N 01°13' E 103°41'2 5.0
2018-Jan-20 02:30N 01°15' E 103°43'2 4.8
2018-Jan-20 01:59N 01°17' E 103°45'1 2.1
2018-Jan-20 01:28N 01°18' E 103°45'0 0.7
2018-Jan-20 01:00N 01°18' E 103°45'0 0.3
2018-Jan-20 00:23N 01°18' E 103°45'0 0.6
2018-Jan-19 23:59N 01°18' E 103°45'2 3.8
2018-Jan-19 23:29N 01°18' E 103°44'0 0.0
2018-Jan-19 22:56N 01°18' E 103°44'0 0.0
2018-Jan-19 22:29N 01°18' E 103°44'0 0.0
2018-Jan-19 21:41N 01°18' E 103°44'0 0.0
2018-Jan-19 21:30N 01°18' E 103°44'0 0.0
2018-Jan-19 20:54N 01°18' E 103°44'0 0.0
2018-Jan-19 20:30N 01°18' E 103°44'0 0.0
2018-Jan-19 19:54N 01°18' E 103°44'0 0.0
2018-Jan-19 19:27N 01°18' E 103°44'0 0.0
2018-Jan-19 18:54N 01°18' E 103°44'0 0.0
2018-Jan-19 18:30N 01°18' E 103°44'0 0.0
2018-Jan-19 17:57N 01°18' E 103°44'0 0.0
2018-Jan-19 17:24N 01°18' E 103°44'0 0.0
2018-Jan-19 17:00N 01°18' E 103°44'0 0.0
2018-Jan-19 16:30N 01°18' E 103°44'0 0.0
2018-Jan-19 16:00N 01°18' E 103°44'0 0.0
2018-Jan-19 15:30N 01°18' E 103°44'0 0.0
2018-Jan-19 15:00N 01°18' E 103°44'0 0.0
2018-Jan-19 14:24N 01°18' E 103°44'0 0.0
2018-Jan-19 13:51N 01°18' E 103°44'0 0.0
2018-Jan-19 13:21N 01°18' E 103°44'0 0.0
2018-Jan-19 13:00N 01°18' E 103°44'0 0.0
2018-Jan-19 12:27N 01°18' E 103°44'0 0.0
2018-Jan-19 11:51N 01°18' E 103°44'0 0.0
2018-Jan-19 11:30N 01°18' E 103°44'0 0.0
2018-Jan-19 10:54N 01°18' E 103°44'0 0.0
2018-Jan-19 10:30N 01°18' E 103°44'0 0.0
2018-Jan-19 10:00N 01°18' E 103°44'0 0.0
2018-Jan-19 09:30N 01°18' E 103°44'0 0.0
2018-Jan-19 08:57N 01°18' E 103°44'0 0.0
2018-Jan-19 08:30N 01°18' E 103°44'0 0.0
2018-Jan-19 07:57N 01°18' E 103°44'0 0.0
2018-Jan-19 07:30N 01°18' E 103°44'0 0.0
2018-Jan-19 06:57N 01°18' E 103°44'0 0.0
2018-Jan-19 06:30N 01°18' E 103°44'0 0.0
2018-Jan-19 05:57N 01°18' E 103°44'0 0.0
2018-Jan-19 05:30N 01°18' E 103°44'0 0.0
2018-Jan-19 04:57N 01°18' E 103°44'0 0.0
2018-Jan-19 04:30N 01°18' E 103°44'0 0.0
2018-Jan-19 03:57N 01°18' E 103°44'0 0.0
2018-Jan-19 03:30N 01°18' E 103°44'0 0.0
2018-Jan-19 02:57N 01°18' E 103°44'0 0.1
2018-Jan-19 02:30N 01°18' E 103°44'3 5.4
2018-Jan-19 01:58N 01°15' E 103°44'3 5.4
2018-Jan-19 01:29N 01°14' E 103°42'3 5.5
2018-Jan-19 01:01N 01°15' E 103°44'2 3.3
2018-Jan-19 00:30N 01°17' E 103°44'1 2.7
2018-Jan-18 23:59N 01°18' E 103°43'0 0.0
2018-Jan-18 23:29N 01°18' E 103°43'0 0.0
2018-Jan-18 22:57N 01°18' E 103°43'0 0.7
2018-Jan-18 22:30N 01°18' E 103°43'1 1.3
2018-Jan-18 21:59N 01°18' E 103°44'0 0.0
2018-Jan-18 21:29N 01°18' E 103°44'0 0.0
2018-Jan-18 20:56N 01°18' E 103°44'0 0.0
2018-Jan-18 20:23N 01°18' E 103°44'0 0.0
2018-Jan-18 19:56N 01°18' E 103°44'0 0.0
2018-Jan-18 19:29N 01°18' E 103°44'0 0.0
2018-Jan-18 18:59N 01°18' E 103°44'0 0.0
2018-Jan-18 18:29N 01°18' E 103°44'0 0.0
2018-Jan-18 17:59N 01°18' E 103°44'0 0.0
2018-Jan-18 17:26N 01°18' E 103°44'0 0.0
2018-Jan-18 16:59N 01°18' E 103°44'0 0.0
2018-Jan-18 16:26N 01°18' E 103°44'0 0.0
2018-Jan-18 15:50N 01°18' E 103°44'0 0.0
2018-Jan-18 15:26N 01°18' E 103°44'0 0.0
2018-Jan-18 14:53N 01°18' E 103°44'0 0.0
2018-Jan-18 14:29N 01°18' E 103°44'0 0.0
2018-Jan-18 13:59N 01°18' E 103°44'0 0.0
2018-Jan-18 13:29N 01°18' E 103°44'0 0.0
2018-Jan-18 12:53N 01°18' E 103°44'0 0.0
2018-Jan-18 12:29N 01°18' E 103°44'0 0.0
2018-Jan-18 11:59N 01°18' E 103°44'0 0.0
2018-Jan-18 11:26N 01°18' E 103°44'0 0.0
2018-Jan-18 10:59N 01°18' E 103°44'0 0.0
2018-Jan-18 10:29N 01°18' E 103°44'0 0.0
2018-Jan-18 09:58N 01°18' E 103°44'0 0.0
2018-Jan-18 09:30N 01°18' E 103°44'0 0.0
2018-Jan-18 08:54N 01°18' E 103°44'0 0.0
2018-Jan-18 08:30N 01°18' E 103°44'0 0.0
2018-Jan-18 07:54N 01°18' E 103°44'0 0.0
2018-Jan-18 07:30N 01°18' E 103°44'0 0.0
2018-Jan-18 06:57N 01°18' E 103°44'0 0.0
2018-Jan-18 06:30N 01°18' E 103°44'0 0.8
2018-Jan-18 05:59N 01°18' E 103°43'1 2.4
2018-Jan-18 05:30N 01°17' E 103°44'1 1.8
2018-Jan-18 04:57N 01°18' E 103°44'1 1.4
2018-Jan-18 04:28N 01°18' E 103°43'1 1.4
2018-Jan-18 03:59N 01°18' E 103°44'1 2.3
2018-Jan-18 03:30N 01°17' E 103°45'2 3.9
2018-Jan-18 02:54N 01°15' E 103°46'  
2018-Jan-12 14:59N 01°18' E 103°44'0 0.0
2018-Jan-12 14:28N 01°18' E 103°44'0 0.0
2018-Jan-12 13:59N 01°18' E 103°44'0 0.0
2018-Jan-12 13:29N 01°18' E 103°44'0 0.0
2018-Jan-12 12:58N 01°18' E 103°44'0 0.0
2018-Jan-12 12:29N 01°18' E 103°44'  
Track history (hours):
 
Tides and Currents Weather Stations Pressure Air Temp Water Temp Dewpoint Dewpoint Depression Visibility Wind Speed Wind Dir Waves Ship Positions

Marina PrinceSS 3

Last reported at 2018-Jan-22 12:28 UTC. Time now 2018-Jan-22 12:37 UTC.
Position N 01°18' E 103°44'.

Length 30 m.

Type: Tug. MMSI: 563004120.

Date/timePositionNaut miles runAvg speedWind from/ knotsBaromVisibWave heightAir tempDewpointWater temp
2018-Jan-22 12:28N 01°18' E 103°44'0 0.0
2018-Jan-22 11:55N 01°18' E 103°44'0 0.0
2018-Jan-22 11:25N 01°18' E 103°44'0 0.0
2018-Jan-22 10:55N 01°18' E 103°44'0 0.0
2018-Jan-22 10:28N 01°18' E 103°44'0 0.0
2018-Jan-22 09:52N 01°18' E 103°44'0 0.0
2018-Jan-22 09:28N 01°18' E 103°44'0 0.0
2018-Jan-22 08:58N 01°18' E 103°44'3 6.5
2018-Jan-22 08:29N 01°16' E 103°46'4 0.3
2018-Jan-21 17:47N 01°14' E 103°49'3 8.5
2018-Jan-21 17:26N 01°15' E 103°47'4 8.9
2018-Jan-21 16:58N 01°18' E 103°44'0 0.3
2018-Jan-21 16:26N 01°18' E 103°44'0 0.0
2018-Jan-21 15:59N 01°18' E 103°44'0 0.0
2018-Jan-21 15:26N 01°18' E 103°44'0 0.0
2018-Jan-21 14:56N 01°18' E 103°44'0 0.0
2018-Jan-21 14:23N 01°18' E 103°44'0 0.0
2018-Jan-21 13:59N 01°18' E 103°44'0 0.0
2018-Jan-21 12:44N 01°18' E 103°44'0 0.0
2018-Jan-21 11:08N 01°18' E 103°44'0 0.0
2018-Jan-21 10:40N 01°18' E 103°44'0 0.0
2018-Jan-21 10:28N 01°18' E 103°44'0 0.0
2018-Jan-21 09:58N 01°18' E 103°44'0 0.0
2018-Jan-21 09:25N 01°18' E 103°44'0 0.0
2018-Jan-21 08:58N 01°18' E 103°44'0 0.0
2018-Jan-21 08:28N 01°18' E 103°44'0 0.0
2018-Jan-21 07:52N 01°18' E 103°44'0 0.0
2018-Jan-21 07:28N 01°18' E 103°44'0 0.0
2018-Jan-21 06:55N 01°18' E 103°44'0 0.0
2018-Jan-21 06:28N 01°18' E 103°44'0 0.0
2018-Jan-21 05:55N 01°18' E 103°44'0 0.0
2018-Jan-21 05:25N 01°18' E 103°44'0 0.0
2018-Jan-21 04:58N 01°18' E 103°44'0 0.0
2018-Jan-21 04:28N 01°18' E 103°44'0 0.0
2018-Jan-21 03:58N 01°18' E 103°44'0 0.0
2018-Jan-21 03:28N 01°18' E 103°44'0 0.0
2018-Jan-21 02:58N 01°18' E 103°44'0 0.0
2018-Jan-21 02:28N 01°18' E 103°44'0 0.0
2018-Jan-21 01:58N 01°18' E 103°44'0 0.0
2018-Jan-21 01:28N 01°18' E 103°44'0 0.0
2018-Jan-21 00:52N 01°18' E 103°44'0 0.0
2018-Jan-21 00:25N 01°18' E 103°44'2 4.0
2018-Jan-20 23:59N 01°17' E 103°45'3 5.1
2018-Jan-20 23:29N 01°15' E 103°47'1 0.6
2018-Jan-20 21:55N 01°16' E 103°47'0 0.0
2018-Jan-20 19:56N 01°16' E 103°47'3 0.7
2018-Jan-20 16:17N 01°14' E 103°50'3 8.1
2018-Jan-20 15:59N 01°15' E 103°47'4 8.5
2018-Jan-20 15:30N 01°18' E 103°44'1 1.4
2018-Jan-20 14:58N 01°18' E 103°44'0 0.0
2018-Jan-20 14:28N 01°18' E 103°44'0 0.0
2018-Jan-20 13:58N 01°18' E 103°44'0 0.0
2018-Jan-20 13:28N 01°18' E 103°44'0 0.0
2018-Jan-20 12:55N 01°18' E 103°44'0 0.0
2018-Jan-20 12:28N 01°18' E 103°44'0 0.0
2018-Jan-20 11:58N 01°18' E 103°44'0 0.0
2018-Jan-20 11:28N 01°18' E 103°44'0 0.0
2018-Jan-20 10:58N 01°18' E 103°44'0 0.0
2018-Jan-20 10:28N 01°18' E 103°44'0 0.0
2018-Jan-20 09:58N 01°18' E 103°44'0 0.0
2018-Jan-20 09:28N 01°18' E 103°44'0 0.0
2018-Jan-20 09:01N 01°18' E 103°44'0 0.0
2018-Jan-20 08:28N 01°18' E 103°44'0 0.0
2018-Jan-20 07:58N 01°18' E 103°44'0 0.0
2018-Jan-20 07:25N 01°18' E 103°44'0 0.0
2018-Jan-20 06:58N 01°18' E 103°44'3 5.7
2018-Jan-20 06:30N 01°16' E 103°44'4 7.5
2018-Jan-20 05:55N 01°14' E 103°40'4 8.4
2018-Jan-20 05:27N 01°18' E 103°39'0 0.3
2018-Jan-20 04:56N 01°18' E 103°39'1 2.1
2018-Jan-20 04:28N 01°17' E 103°39'2 3.7
2018-Jan-20 04:00N 01°16' E 103°39'2 3.5
2018-Jan-20 03:30N 01°14' E 103°40'2 2.9
2018-Jan-20 02:58N 01°13' E 103°41'2 5.0
2018-Jan-20 02:30N 01°15' E 103°43'2 4.8
2018-Jan-20 01:59N 01°17' E 103°45'1 2.1
2018-Jan-20 01:28N 01°18' E 103°45'0 0.7
2018-Jan-20 01:00N 01°18' E 103°45'0 0.3
2018-Jan-20 00:23N 01°18' E 103°45'0 0.6
2018-Jan-19 23:59N 01°18' E 103°45'2 3.8
2018-Jan-19 23:29N 01°18' E 103°44'0 0.0
2018-Jan-19 22:56N 01°18' E 103°44'0 0.0
2018-Jan-19 22:29N 01°18' E 103°44'0 0.0
2018-Jan-19 21:41N 01°18' E 103°44'0 0.0
2018-Jan-19 21:30N 01°18' E 103°44'0 0.0
2018-Jan-19 20:54N 01°18' E 103°44'0 0.0
2018-Jan-19 20:30N 01°18' E 103°44'0 0.0
2018-Jan-19 19:54N 01°18' E 103°44'0 0.0
2018-Jan-19 19:27N 01°18' E 103°44'0 0.0
2018-Jan-19 18:54N 01°18' E 103°44'0 0.0
2018-Jan-19 18:30N 01°18' E 103°44'0 0.0
2018-Jan-19 17:57N 01°18' E 103°44'0 0.0
2018-Jan-19 17:24N 01°18' E 103°44'0 0.0
2018-Jan-19 17:00N 01°18' E 103°44'0 0.0
2018-Jan-19 16:30N 01°18' E 103°44'0 0.0
2018-Jan-19 16:00N 01°18' E 103°44'0 0.0
2018-Jan-19 15:30N 01°18' E 103°44'0 0.0
2018-Jan-19 15:00N 01°18' E 103°44'0 0.0
2018-Jan-19 14:24N 01°18' E 103°44'0 0.0
2018-Jan-19 13:51N 01°18' E 103°44'0 0.0
2018-Jan-19 13:21N 01°18' E 103°44'0 0.0
2018-Jan-19 13:00N 01°18' E 103°44'0 0.0
2018-Jan-19 12:27N 01°18' E 103°44'0 0.0
2018-Jan-19 11:51N 01°18' E 103°44'0 0.0
2018-Jan-19 11:30N 01°18' E 103°44'0 0.0
2018-Jan-19 10:54N 01°18' E 103°44'0 0.0
2018-Jan-19 10:30N 01°18' E 103°44'0 0.0
2018-Jan-19 10:00N 01°18' E 103°44'0 0.0
2018-Jan-19 09:30N 01°18' E 103°44'0 0.0
2018-Jan-19 08:57N 01°18' E 103°44'0 0.0
2018-Jan-19 08:30N 01°18' E 103°44'0 0.0
2018-Jan-19 07:57N 01°18' E 103°44'0 0.0
2018-Jan-19 07:30N 01°18' E 103°44'0 0.0
2018-Jan-19 06:57N 01°18' E 103°44'0 0.0
2018-Jan-19 06:30N 01°18' E 103°44'0 0.0
2018-Jan-19 05:57N 01°18' E 103°44'0 0.0
2018-Jan-19 05:30N 01°18' E 103°44'0 0.0
2018-Jan-19 04:57N 01°18' E 103°44'0 0.0
2018-Jan-19 04:30N 01°18' E 103°44'0 0.0
2018-Jan-19 03:57N 01°18' E 103°44'0 0.0
2018-Jan-19 03:30N 01°18' E 103°44'0 0.0
2018-Jan-19 02:57N 01°18' E 103°44'0 0.1
2018-Jan-19 02:30N 01°18' E 103°44'3 5.4
2018-Jan-19 01:58N 01°15' E 103°44'3 5.4
2018-Jan-19 01:29N 01°14' E 103°42'3 5.5
2018-Jan-19 01:01N 01°15' E 103°44'2 3.3
2018-Jan-19 00:30N 01°17' E 103°44'1 2.7
2018-Jan-18 23:59N 01°18' E 103°43'0 0.0
2018-Jan-18 23:29N 01°18' E 103°43'0 0.0
2018-Jan-18 22:57N 01°18' E 103°43'0 0.7
2018-Jan-18 22:30N 01°18' E 103°43'1 1.3
2018-Jan-18 21:59N 01°18' E 103°44'0 0.0
2018-Jan-18 21:29N 01°18' E 103°44'0 0.0
2018-Jan-18 20:56N 01°18' E 103°44'0 0.0
2018-Jan-18 20:23N 01°18' E 103°44'0 0.0
2018-Jan-18 19:56N 01°18' E 103°44'0 0.0
2018-Jan-18 19:29N 01°18' E 103°44'0 0.0
2018-Jan-18 18:59N 01°18' E 103°44'0 0.0
2018-Jan-18 18:29N 01°18' E 103°44'0 0.0
2018-Jan-18 17:59N 01°18' E 103°44'0 0.0
2018-Jan-18 17:26N 01°18' E 103°44'0 0.0
2018-Jan-18 16:59N 01°18' E 103°44'0 0.0
2018-Jan-18 16:26N 01°18' E 103°44'0 0.0
2018-Jan-18 15:50N 01°18' E 103°44'0 0.0
2018-Jan-18 15:26N 01°18' E 103°44'0 0.0
2018-Jan-18 14:53N 01°18' E 103°44'0 0.0
2018-Jan-18 14:29N 01°18' E 103°44'0 0.0
2018-Jan-18 13:59N 01°18' E 103°44'0 0.0
2018-Jan-18 13:29N 01°18' E 103°44'0 0.0
2018-Jan-18 12:53N 01°18' E 103°44'0 0.0
2018-Jan-18 12:29N 01°18' E 103°44'0 0.0
2018-Jan-18 11:59N 01°18' E 103°44'0 0.0
2018-Jan-18 11:26N 01°18' E 103°44'0 0.0
2018-Jan-18 10:59N 01°18' E 103°44'0 0.0
2018-Jan-18 10:29N 01°18' E 103°44'0 0.0
2018-Jan-18 09:58N 01°18' E 103°44'0 0.0
2018-Jan-18 09:30N 01°18' E 103°44'0 0.0
2018-Jan-18 08:54N 01°18' E 103°44'0 0.0
2018-Jan-18 08:30N 01°18' E 103°44'0 0.0
2018-Jan-18 07:54N 01°18' E 103°44'0 0.0
2018-Jan-18 07:30N 01°18' E 103°44'0 0.0
2018-Jan-18 06:57N 01°18' E 103°44'0 0.0
2018-Jan-18 06:30N 01°18' E 103°44'0 0.8
2018-Jan-18 05:59N 01°18' E 103°43'1 2.4
2018-Jan-18 05:30N 01°17' E 103°44'1 1.8
2018-Jan-18 04:57N 01°18' E 103°44'1 1.4
2018-Jan-18 04:28N 01°18' E 103°43'1 1.4
2018-Jan-18 03:59N 01°18' E 103°44'1 2.3
2018-Jan-18 03:30N 01°17' E 103°45'2 3.9
2018-Jan-18 02:54N 01°15' E 103°46'  
2018-Jan-12 14:59N 01°18' E 103°44'0 0.0
2018-Jan-12 14:28N 01°18' E 103°44'0 0.0
2018-Jan-12 13:59N 01°18' E 103°44'0 0.0
2018-Jan-12 13:29N 01°18' E 103°44'0 0.0
2018-Jan-12 12:58N 01°18' E 103°44'0 0.0
2018-Jan-12 12:29N 01°18' E 103°44'  

Dump ship's entire track history